Country Lakes, Florida
Current Conditions -  °F | °C
As of 5:44 AM on Friday 24 Oct 2014 (Local Time) from KTMB Reporting Station
Heavy Rain Heavy Rain  
Wind Chill: 76°   Ceiling: 2700
Heat Index: 76°   Visibility: 2.5mi
Dew Point: 73°   Wind: 10mph
Humidity: 91%   Direction: 50°NE
Pressure: 29.83"   Gusts: 21mph
Location:  25.6007°N, 80.4075°W
Report Text: KTMB 240944Z AUTO 05009G18KT 2 1/2SM +RA BR FEW008 BKN027 OVC060 24/23 A2983 RMK AO2 P0012 T02440228
Loading
Personal Weather Stations






























Interactive Weather Map
Tropical Storm Tracking
New forecast layout! Learn more

10-Day Weather Forecast

Advertisements
Track Severe Weather on mobile